Napa, CA

7:05 PM PDT on August 30, 2015 (GMT -0700)
Napa County | | Change Station
CLOSE
Current Station
Airport
Location: Napa County,
Elevation: 33 ft
Nearby Weather Stations

Elev 33 ft 38.21 °N, 122.28 °W | Updated 11 minutes ago

Clear
Clear
75 °F
Feels Like 75 °F
N
10
Wind Variable Wind from SW

Today
High -- | Low -- °F
--% Chance of Precip.
Yesterday
High -- | Low -- °F
Precip. -- in
6:36 AM 7:41 PM
Full, 97% visible
Pressure 29.90 in
Visibility 10.0 miles
Clouds Clear
Dew Point 57 °F
Humidity 53%
Rainfall 0.00 in
Snow Depth Not available.
UV 0 out of 12
Pollen 6.40 out of 12
Air Quality Not available.
Flu Activity Not available.
METAR KAPC 310154Z 22009KT 10SM CLR 24/14 A2992 RMK AO2 SLP123 T02390139
Pressure 29.90 in
Visibility 10.0 miles
Clouds Clear
Dew Point 57 °F
Humidity 53%
Rainfall 0.00 in
Snow Depth Not available.
UV 0 out of 12
Pollen 6.40 out of 12
Air Quality Not available.
Flu Activity Not available.
METAR KAPC 310154Z 22009KT 10SM CLR 24/14 A2992 RMK AO2 SLP123 T02390139

10-Day Weather Forecast

×

Almanac

Astronomy

Aug. 30, 2015 Rise Set
Actual Time
Civil Twilight
Nautical Twilight
Astronomical Twilight
Moon
Length of Visible Light
Length of Day
Tomorrow will be .
, % of the Moon is Illuminated

Today's Extremes

State Highs State Lows

Community

WunderPhotos

Upload Photos

1,851,155 photos uploaded!

WunderBlogs® & News

Nearby

Air Quality

  Air Quality AQ Index Pollutant
Not available.

Snow Depth

Station Depth Elevation

Earthquake Activity

City Distance Mag. Time & Date
Minimum magnitude displayed is 2.5.

Coastal Water Temperatures

Place Temperature

Stations

Nearby Weather Stations

Station Location Temp. Windchill Dew Point Humidity Wind Precip. Elev Updated Type